Time;durP1;ratioP1;P1;durP2;ratioP2;P2;SDS_P1;SDS_P2;PMS_P1;PMS_P2;Temp;Humidity;BMP_temperature;BMP_pressure;BME280_temperature;BME280_humidity;BME280_pressure;Samples;Min_cycle;Max_cycle;Signal;HPM_P1;HPM_P2
2022/01/06 00:00:22;;;;;;;17.23;3.75;;;4.40;99.90;;;;;;4961329;28;20069;-88
2022/01/06 00:02:48;;;;;;;17.70;2.90;;;4.90;99.90;;;;;;4959376;28;20069;-89
2022/01/06 00:05:13;;;;;;;18.27;3.28;;;4.40;99.90;;;;;;4959973;28;20092;-89
2022/01/06 00:07:39;;;;;;;17.20;2.85;;;4.90;99.90;;;;;;4978184;28;20034;-89
2022/01/06 00:10:07;;;;;;;17.90;3.63;;;6.00;99.90;;;;;;4959228;28;20046;-88
2022/01/06 00:12:42;;;;;;;19.25;3.72;;;4.50;99.90;;;;;;4987640;28;20038;-89
2022/01/06 00:15:28;;;;;;;16.83;3.47;;;4.90;99.90;;;;;;4963003;28;20030;-89
2022/01/06 00:25:43;;;;;;;17.33;2.90;;;5.90;99.90;;;;;;4993416;28;20053;-88
2022/01/06 00:28:08;;;;;;;15.93;3.40;;;5.50;99.90;;;;;;4944396;28;20072;-89
2022/01/06 00:30:34;;;;;;;19.20;3.42;;;5.00;99.90;;;;;;4947079;28;20073;-89
2022/01/06 00:33:00;;;;;;;26.17;3.33;;;4.60;99.90;;;;;;4959068;28;20030;-89
2022/01/06 00:35:25;;;;;;;17.70;3.10;;;5.90;99.90;;;;;;4971233;28;20081;-89
2022/01/06 00:37:51;;;;;;;20.40;3.75;;;5.30;99.90;;;;;;4987717;28;20157;-88
2022/01/06 00:40:17;;;;;;;14.75;3.17;;;5.50;99.90;;;;;;4996300;28;20044;-90
2022/01/06 00:42:43;;;;;;;17.02;3.20;;;5.30;99.90;;;;;;4980668;28;20124;-89
2022/01/06 00:45:09;;;;;;;20.95;3.38;;;4.40;99.90;;;;;;4977686;28;20049;-89
2022/01/06 00:47:34;;;;;;;16.90;2.88;;;4.30;99.90;;;;;;4971291;28;20034;-89
2022/01/06 00:50:00;;;;;;;18.63;3.47;;;5.10;99.90;;;;;;4989049;28;20490;-88
2022/01/06 00:52:26;;;;;;;19.15;3.17;;;5.80;99.90;;;;;;4970087;28;20403;-89
2022/01/06 00:54:51;;;;;;;14.85;2.83;;;4.60;99.90;;;;;;4977739;28;20037;-89
2022/01/06 00:57:17;;;;;;;17.58;2.95;;;5.50;99.90;;;;;;4997788;28;20050;-88
2022/01/06 00:59:43;;;;;;;17.50;3.25;;;5.30;99.90;;;;;;4997523;28;20044;-89
2022/01/06 01:02:08;;;;;;;15.10;2.88;;;5.00;99.90;;;;;;4968438;28;20046;-89
2022/01/06 01:04:34;;;;;;;14.77;2.83;;;4.60;99.90;;;;;;5002866;28;20042;-89
2022/01/06 01:07:00;;;;;;;17.33;2.83;;;4.70;99.90;;;;;;4965801;28;20046;-88
2022/01/06 01:09:26;;;;;;;16.08;2.75;;;4.00;99.90;;;;;;4977921;28;20502;-88
2022/01/06 01:11:53;;;;;;;17.25;2.63;;;4.00;99.90;;;;;;4949877;28;20077;-89
2022/01/06 01:14:27;;;;;;;18.42;2.80;;;4.80;99.90;;;;;;4980474;28;20038;-89
2022/01/06 01:16:57;;;;;;;17.13;2.95;;;3.90;99.90;;;;;;4967507;28;20042;-88
2022/01/06 01:19:23;;;;;;;12.52;2.28;;;4.80;99.90;;;;;;4979269;28;20049;-89
2022/01/06 01:21:49;;;;;;;9.93;2.67;;;3.90;99.90;;;;;;4996715;28;20049;-90
2022/01/06 01:24:16;;;;;;;11.45;2.25;;;4.90;99.90;;;;;;4978812;28;20038;-88
2022/01/06 01:26:42;;;;;;;13.80;2.63;;;5.10;99.90;;;;;;4980352;28;20045;-88
2022/01/06 01:29:15;;;;;;;14.57;2.80;;;3.90;99.90;;;;;;4976038;28;20399;-89
2022/01/06 01:31:46;;;;;;;8.82;1.90;;;5.30;99.90;;;;;;4981190;28;20038;-89
2022/01/06 01:34:12;;;;;;;11.85;2.17;;;5.10;99.90;;;;;;4985800;28;20053;-88
2022/01/06 01:36:39;;;;;;;12.70;2.25;;;3.80;99.90;;;;;;4976312;28;20494;-89
2022/01/06 01:39:05;;;;;;;11.30;1.98;;;5.60;99.90;;;;;;4999509;28;20057;-89
2022/01/06 01:41:32;;;;;;;10.60;1.90;;;3.70;99.90;;;;;;4974027;28;20038;-89
2022/01/06 01:43:58;;;;;;;10.65;2.55;;;3.70;99.90;;;;;;4976811;28;20044;-88
2022/01/06 01:46:30;;;;;;;14.30;2.30;;;3.70;99.90;;;;;;4976272;28;20034;-87
2022/01/06 01:49:15;;;;;;;9.38;2.40;;;5.30;99.90;;;;;;4986455;28;20048;-89
2022/01/06 01:51:42;;;;;;;15.52;2.05;;;4.70;99.90;;;;;;5008312;28;20137;-88
2022/01/06 01:54:08;;;;;;;11.05;2.22;;;5.00;99.90;;;;;;4977213;28;20037;-89
2022/01/06 01:56:34;;;;;;;9.52;1.90;;;4.60;99.90;;;;;;4977006;28;20037;-88
2022/01/06 01:58:59;;;;;;;10.80;2.08;;;3.70;99.90;;;;;;4976712;28;20548;-89
2022/01/06 02:01:25;;;;;;;10.70;1.83;;;3.70;99.90;;;;;;4973177;28;20045;-88
2022/01/06 02:03:51;;;;;;;12.95;2.60;;;3.70;99.90;;;;;;4958684;28;20103;-88
2022/01/06 02:06:19;;;;;;;12.05;2.10;;;3.60;99.90;;;;;;4986442;28;20058;-88
2022/01/06 02:08:45;;;;;;;17.58;2.40;;;4.90;99.90;;;;;;4975940;28;20054;-88
2022/01/06 02:11:10;;;;;;;14.52;2.80;;;5.00;99.90;;;;;;4993809;28;20052;-89
2022/01/06 02:13:52;;;;;;;12.40;2.00;;;3.60;99.90;;;;;;4992444;28;20075;-89
2022/01/06 02:16:24;;;;;;;11.32;2.10;;;3.50;99.90;;;;;;4985907;28;20045;-88
2022/01/06 02:18:50;;;;;;;13.38;2.40;;;5.40;99.90;;;;;;4975456;28;20046;-89
2022/01/06 02:21:16;;;;;;;13.30;2.53;;;4.40;99.90;;;;;;4979486;28;20124;-89
2022/01/06 02:23:43;;;;;;;12.93;2.20;;;3.40;99.90;;;;;;4969992;28;20041;-89
2022/01/06 02:26:09;;;;;;;12.00;2.10;;;3.40;99.90;;;;;;4987250;28;20042;-89
2022/01/06 02:28:34;;;;;;;14.10;1.80;;;3.30;99.90;;;;;;4973421;28;20035;-89
2022/01/06 02:31:01;;;;;;;11.93;2.40;;;3.30;99.90;;;;;;4975863;28;20044;-88
2022/01/06 02:33:27;;;;;;;11.43;2.20;;;3.20;99.90;;;;;;4973961;28;20049;-89
2022/01/06 02:35:54;;;;;;;9.68;1.85;;;4.10;99.90;;;;;;4997613;28;20044;-89
2022/01/06 02:38:20;;;;;;;12.50;1.90;;;3.20;99.90;;;;;;4977134;28;20049;-88
2022/01/06 02:40:46;;;;;;;15.30;1.98;;;3.30;99.90;;;;;;4991188;28;20038;-88
2022/01/06 02:43:16;;;;;;;11.80;2.20;;;3.30;99.90;;;;;;4980061;28;20030;-89
2022/01/06 02:45:43;;;;;;;12.52;2.33;;;3.40;99.90;;;;;;4977982;28;20124;-88
2022/01/06 02:48:09;;;;;;;17.95;2.83;;;4.90;99.90;;;;;;4971887;28;20395;-88
2022/01/06 02:50:43;;;;;;;19.17;2.85;;;4.80;99.90;;;;;;4972345;28;20040;-88
2022/01/06 02:53:10;;;;;;;16.08;2.65;;;3.70;99.90;;;;;;4992393;28;20044;-89
2022/01/06 02:55:38;;;;;;;19.83;2.88;;;4.90;99.90;;;;;;4962931;28;20049;-88
2022/01/06 02:58:04;;;;;;;11.73;2.60;;;3.70;99.90;;;;;;4968917;28;20115;-88
2022/01/06 03:00:30;;;;;;;15.13;2.47;;;3.60;99.90;;;;;;4976603;28;20123;-89
2022/01/06 03:02:56;;;;;;;16.00;2.60;;;3.60;99.90;;;;;;4974699;28;20088;-88
2022/01/06 03:05:22;;;;;;;18.17;3.22;;;3.50;99.90;;;;;;4958981;28;20050;-88
2022/01/06 03:07:48;;;;;;;16.67;2.42;;;3.50;99.90;;;;;;4975627;28;20042;-90
2022/01/06 03:10:16;;;;;;;19.48;3.08;;;3.90;99.90;;;;;;4991176;28;20127;-89
2022/01/06 03:12:43;;;;;;;17.15;2.45;;;3.40;99.90;;;;;;4979220;28;20458;-88
2022/01/06 03:15:20;;;;;;;13.70;2.60;;;3.40;99.90;;;;;;4987366;28;20495;-89
2022/01/06 03:17:49;;;;;;;15.13;2.92;;;4.70;99.90;;;;;;4965920;28;20154;-88
2022/01/06 03:20:17;;;;;;;17.45;3.38;;;3.30;99.90;;;;;;4969731;28;20056;-88
2022/01/06 03:22:42;;;;;;;16.63;2.53;;;4.20;99.90;;;;;;4975435;28;20045;-89
2022/01/06 03:25:10;;;;;;;15.85;2.70;;;5.10;99.90;;;;;;4983302;28;20107;-89
2022/01/06 03:27:36;;;;;;;16.85;2.83;;;3.20;99.90;;;;;;4993978;28;20038;-88
2022/01/06 03:30:04;;;;;;;21.67;3.55;;;3.20;99.90;;;;;;4972684;28;20041;-88
2022/01/06 03:32:29;;;;;;;18.00;2.55;;;3.10;99.90;;;;;;4988089;28;20502;-88
2022/01/06 03:34:55;;;;;;;15.18;2.83;;;3.10;99.90;;;;;;4973579;28;20113;-88
2022/01/06 03:37:21;;;;;;;17.20;2.80;;;3.00;99.90;;;;;;4991951;28;20187;-88
2022/01/06 03:39:47;;;;;;;14.45;2.45;;;3.00;99.90;;;;;;4961263;28;20077;-88
2022/01/06 03:42:13;;;;;;;15.82;3.22;;;4.70;99.90;;;;;;4961420;28;20053;-88
2022/01/06 03:44:38;;;;;;;19.48;3.15;;;2.90;99.90;;;;;;4966593;28;20495;-88
2022/01/06 03:47:05;;;;;;;16.35;2.47;;;3.70;99.90;;;;;;4974639;28;20077;-88
2022/01/06 03:49:31;;;;;;;14.23;2.50;;;2.80;99.90;;;;;;4970009;28;20488;-88
2022/01/06 03:51:57;;;;;;;17.20;2.65;;;2.80;99.90;;;;;;4988282;28;20907;-88
2022/01/06 03:54:23;;;;;;;14.48;2.88;;;3.80;99.90;;;;;;4974269;28;20041;-88
2022/01/06 03:56:49;;;;;;;12.82;2.53;;;2.50;99.90;;;;;;4984006;28;20069;-88
2022/01/06 03:59:16;;;;;;;14.13;2.40;;;3.80;99.90;;;;;;4986245;28;20065;-88
2022/01/06 04:01:43;;;;;;;21.50;2.90;;;2.50;99.90;;;;;;4992156;28;20429;-88
2022/01/06 04:04:09;;;;;;;13.10;2.67;;;2.50;99.90;;;;;;4975659;28;20273;-88
2022/01/06 04:06:35;;;;;;;12.80;2.53;;;2.40;99.90;;;;;;4993022;28;20050;-88
2022/01/06 04:09:01;;;;;;;12.73;2.40;;;2.40;99.90;;;;;;4978320;28;20046;-88
2022/01/06 04:11:27;;;;;;;14.30;2.22;;;2.40;99.90;;;;;;4982849;28;20045;-88
2022/01/06 04:13:52;;;;;;;17.75;2.88;;;2.30;99.90;;;;;;4966354;28;20049;-88
2022/01/06 04:16:18;;;;;;;14.60;2.42;;;2.20;99.90;;;;;;4986632;28;20041;-88
2022/01/06 04:18:44;;;;;;;12.63;2.45;;;3.40;99.90;;;;;;4983307;28;20517;-88
2022/01/06 04:21:10;;;;;;;16.77;3.00;;;3.50;99.90;;;;;;4988538;28;20092;-88
2022/01/06 04:23:36;;;;;;;13.85;2.67;;;3.30;99.90;;;;;;4969482;28;20049;-88
2022/01/06 04:26:02;;;;;;;12.02;2.22;;;2.10;99.90;;;;;;4989834;28;20125;-88
2022/01/06 04:28:28;;;;;;;16.58;3.00;;;2.10;99.90;;;;;;5001961;28;20516;-87
2022/01/06 04:30:54;;;;;;;17.23;2.63;;;3.20;99.90;;;;;;4973520;28;20046;-88
2022/01/06 04:33:20;;;;;;;11.85;2.80;;;2.00;99.90;;;;;;4981869;28;20112;-88
2022/01/06 04:35:45;;;;;;;15.70;2.40;;;2.00;99.90;;;;;;4960996;28;20480;-88
2022/01/06 04:38:11;;;;;;;13.50;2.67;;;1.90;99.90;;;;;;4976896;28;20120;-88
2022/01/06 04:40:37;;;;;;;19.95;3.03;;;2.70;99.90;;;;;;4985677;28;20034;-87
2022/01/06 04:43:03;;;;;;;15.38;2.67;;;3.70;99.90;;;;;;4994825;28;20558;-88
2022/01/06 04:45:29;;;;;;;13.00;2.33;;;1.90;99.90;;;;;;4994633;28;20049;-88
2022/01/06 04:47:55;;;;;;;14.85;2.55;;;1.90;99.90;;;;;;4980299;28;20387;-88
2022/01/06 04:50:20;;;;;;;11.23;2.30;;;1.80;99.90;;;;;;4994444;28;20038;-88
2022/01/06 04:52:46;;;;;;;14.00;3.28;;;1.90;99.90;;;;;;4977443;28;20092;-88
2022/01/06 04:55:12;;;;;;;18.73;3.50;;;2.80;99.90;;;;;;4951831;28;20554;-88
2022/01/06 04:57:38;;;;;;;20.88;3.15;;;1.90;99.90;;;;;;4969221;28;20037;-88
2022/01/06 05:00:08;;;;;;;14.77;2.97;;;1.90;99.90;;;;;;4979383;28;20049;-88
2022/01/06 05:02:33;;;;;;;18.88;2.95;;;1.90;99.90;;;;;;4976923;28;20038;-88
2022/01/06 05:04:59;;;;;;;12.63;2.58;;;1.90;99.90;;;;;;4961447;28;20049;-88
2022/01/06 05:07:25;;;;;;;17.30;3.20;;;1.90;99.90;;;;;;4964404;28;20100;-88
2022/01/06 05:09:51;;;;;;;17.83;2.95;;;1.90;99.90;;;;;;4969162;28;20046;-88
2022/01/06 05:12:17;;;;;;;16.73;2.88;;;1.80;99.90;;;;;;4964606;28;20070;-88
2022/01/06 05:14:42;;;;;;;16.13;2.72;;;2.20;99.90;;;;;;4968685;28;20043;-88
2022/01/06 05:17:09;;;;;;;16.00;3.22;;;1.90;99.90;;;;;;4955460;28;20042;-88
2022/01/06 05:19:35;;;;;;;21.20;3.10;;;1.90;99.90;;;;;;4936180;28;20347;-88
2022/01/06 05:22:02;;;;;;;13.93;2.70;;;1.90;99.90;;;;;;4963127;28;20404;-88
2022/01/06 05:24:28;;;;;;;16.58;2.78;;;1.90;99.90;;;;;;4953472;28;20043;-88
2022/01/06 05:26:55;;;;;;;15.10;3.35;;;1.90;99.90;;;;;;4957313;28;20093;-87
2022/01/06 05:29:21;;;;;;;16.60;2.85;;;1.90;99.90;;;;;;4939125;28;20039;-88
2022/01/06 05:31:47;;;;;;;22.25;3.03;;;2.40;99.90;;;;;;4939836;28;20549;-88
2022/01/06 05:34:13;;;;;;;19.52;3.00;;;1.90;99.90;;;;;;4957646;28;20118;-87
2022/01/06 05:36:39;;;;;;;15.13;2.78;;;1.90;99.90;;;;;;4954825;28;20038;-87
2022/01/06 05:39:05;;;;;;;17.58;2.92;;;1.90;99.90;;;;;;4966956;28;20146;-88
2022/01/06 05:41:31;;;;;;;15.00;2.53;;;1.90;99.90;;;;;;4963463;28;20046;-87
2022/01/06 05:43:57;;;;;;;15.68;2.70;;;1.90;99.90;;;;;;4942022;28;20049;-87
2022/01/06 05:46:23;;;;;;;17.58;3.03;;;1.90;99.90;;;;;;4960889;28;20046;-87
2022/01/06 05:48:49;;;;;;;14.23;2.92;;;3.90;99.90;;;;;;4958674;28;20041;-88
2022/01/06 05:51:15;;;;;;;22.33;3.58;;;1.90;99.90;;;;;;4982309;28;20471;-88
2022/01/06 05:53:41;;;;;;;15.85;3.47;;;1.90;99.90;;;;;;4971287;28;20052;-87
2022/01/06 05:56:06;;;;;;;16.85;2.92;;;1.90;99.90;;;;;;4969599;28;20631;-87
2022/01/06 05:58:32;;;;;;;23.10;3.63;;;1.90;99.90;;;;;;4975610;28;20088;-88
2022/01/06 06:00:58;;;;;;;17.45;3.08;;;3.30;99.90;;;;;;4964243;28;20487;-87
2022/01/06 06:03:27;;;;;;;14.55;2.72;;;1.80;99.90;;;;;;4949960;28;20194;-88
2022/01/06 06:05:56;;;;;;;21.60;3.17;;;1.80;99.90;;;;;;4951031;28;20045;-88
2022/01/06 06:08:21;;;;;;;15.85;3.05;;;1.80;99.90;;;;;;4972737;28;20523;-88
2022/01/06 06:10:48;;;;;;;22.83;3.25;;;1.80;99.90;;;;;;4972016;28;20060;-88
2022/01/06 06:13:14;;;;;;;13.70;2.55;;;1.80;99.90;;;;;;4957233;28;20373;-88
2022/01/06 06:15:40;;;;;;;16.33;3.28;;;3.10;99.90;;;;;;4967386;28;20073;-88
2022/01/06 06:18:09;;;;;;;18.65;3.42;;;2.10;99.90;;;;;;4956645;28;20042;-88
2022/01/06 06:20:35;;;;;;;20.50;3.53;;;1.80;99.90;;;;;;4950280;28;20168;-88
2022/01/06 06:23:02;;;;;;;20.60;3.88;;;1.80;99.90;;;;;;4969859;28;20030;-87
2022/01/06 06:25:28;;;;;;;24.83;3.63;;;1.80;99.90;;;;;;4973390;28;20069;-87
2022/01/06 06:27:54;;;;;;;20.20;3.78;;;1.80;99.90;;;;;;4953793;28;20034;-87
2022/01/06 06:30:20;;;;;;;20.80;3.40;;;3.20;99.90;;;;;;4971967;28;20072;-87
2022/01/06 06:32:46;;;;;;;20.55;3.22;;;1.80;99.90;;;;;;4981149;28;20484;-88
2022/01/06 06:35:12;;;;;;;21.08;3.53;;;1.80;99.90;;;;;;4924259;28;20045;-87
2022/01/06 06:37:39;;;;;;;18.05;3.83;;;2.30;99.90;;;;;;4983527;28;20042;-88
2022/01/06 06:40:05;;;;;;;20.60;3.50;;;1.80;99.90;;;;;;4972257;28;20391;-88
2022/01/06 06:42:31;;;;;;;21.98;4.28;;;1.70;99.90;;;;;;4956916;28;20351;-87
2022/01/06 06:44:57;;;;;;;18.20;3.05;;;1.70;99.90;;;;;;4953142;28;20034;-87
2022/01/06 06:47:23;;;;;;;16.00;3.30;;;2.70;99.90;;;;;;4960056;28;20073;-87
2022/01/06 06:49:49;;;;;;;22.45;3.78;;;1.70;99.90;;;;;;4951869;28;20082;-87
2022/01/06 06:52:15;;;;;;;17.10;3.40;;;1.70;99.90;;;;;;4942399;28;20082;-87
2022/01/06 06:54:40;;;;;;;17.17;3.65;;;1.60;99.90;;;;;;4955241;28;20480;-87
2022/01/06 06:57:07;;;;;;;20.58;3.88;;;3.20;99.90;;;;;;4956209;28;20530;-87
2022/01/06 06:59:32;;;;;;;18.83;3.80;;;2.60;99.90;;;;;;4948040;28;20038;-88
2022/01/06 07:01:58;;;;;;;22.80;3.97;;;1.60;99.90;;;;;;4941810;28;20054;-87
2022/01/06 07:04:24;;;;;;;18.70;3.67;;;1.60;99.90;;;;;;4940038;28;20057;-87
2022/01/06 07:06:49;;;;;;;18.05;4.03;;;2.30;99.90;;;;;;4940299;28;20045;-87
2022/01/06 07:09:15;;;;;;;16.75;3.63;;;1.60;99.90;;;;;;4973984;28;20532;-88
2022/01/06 07:11:41;;;;;;;17.33;3.80;;;1.60;99.90;;;;;;4971137;28;20507;-87
2022/01/06 07:14:07;;;;;;;20.45;4.20;;;1.50;99.90;;;;;;4971668;28;20062;-87
2022/01/06 07:16:33;;;;;;;22.42;3.92;;;2.80;99.90;;;;;;4955088;28;20077;-88
2022/01/06 07:18:58;;;;;;;18.05;3.72;;;1.50;99.90;;;;;;4950260;28;20495;-88
2022/01/06 07:21:24;;;;;;;15.35;3.83;;;2.30;99.90;;;;;;4987518;28;20048;-88
2022/01/06 07:23:52;;;;;;;21.08;3.80;;;2.70;99.90;;;;;;4960249;28;20093;-87
2022/01/06 07:26:18;;;;;;;18.45;3.90;;;1.40;99.90;;;;;;4975023;28;20180;-87
2022/01/06 07:28:44;;;;;;;16.65;3.75;;;1.50;99.90;;;;;;4975335;28;20047;-87
2022/01/06 07:31:10;;;;;;;18.70;3.08;;;3.30;99.90;;;;;;4976164;28;20412;-88
2022/01/06 07:33:36;;;;;;;17.60;3.50;;;1.50;99.90;;;;;;4971203;28;20484;-88
2022/01/06 07:36:02;;;;;;;18.67;3.17;;;2.70;99.90;;;;;;4968488;28;20045;-87
2022/01/06 07:38:28;;;;;;;15.60;2.95;;;1.50;99.90;;;;;;5007685;28;20080;-88
2022/01/06 07:40:55;;;;;;;20.85;3.83;;;1.50;99.90;;;;;;4960005;28;20069;-88
2022/01/06 07:43:21;;;;;;;20.98;2.95;;;1.50;99.90;;;;;;4975852;28;20290;-88
2022/01/06 07:45:49;;;;;;;17.67;3.92;;;1.50;99.90;;;;;;4975088;28;20400;-87
2022/01/06 07:48:17;;;;;;;16.00;3.50;;;1.50;99.90;;;;;;4973113;28;20101;-88
2022/01/06 07:50:44;;;;;;;17.77;3.25;;;3.10;99.90;;;;;;4974921;28;20042;-88
2022/01/06 07:53:10;;;;;;;16.42;3.55;;;1.50;99.90;;;;;;4956767;28;20038;-87
2022/01/06 07:55:36;;;;;;;18.05;3.30;;;1.50;99.90;;;;;;4988731;28;20104;-87
2022/01/06 07:58:03;;;;;;;22.02;3.17;;;1.50;99.90;;;;;;4978285;28;20081;-87
2022/01/06 08:00:29;;;;;;;16.88;3.33;;;1.50;99.90;;;;;;4975529;28;20049;-88
2022/01/06 08:02:55;;;;;;;14.57;2.97;;;1.50;99.90;;;;;;4959512;28;20499;-87
2022/01/06 08:05:24;;;;;;;15.18;3.03;;;1.50;99.90;;;;;;4943662;28;20044;-88
2022/01/06 08:07:50;;;;;;;14.52;3.05;;;1.50;99.90;;;;;;4991726;28;20121;-87
2022/01/06 08:10:16;;;;;;;19.00;3.33;;;1.50;99.90;;;;;;5008277;28;20125;-88
2022/01/06 08:12:42;;;;;;;17.63;3.25;;;0.40;99.90;;;;;;5009614;28;20053;-87
2022/01/06 08:15:08;;;;;;;16.30;3.05;;;1.50;99.90;;;;;;4998531;28;20056;-88
2022/01/06 08:17:36;;;;;;;18.38;3.55;;;1.60;99.90;;;;;;4998293;28;20124;-86
2022/01/06 08:20:05;;;;;;;15.52;2.92;;;3.30;99.90;;;;;;4985605;28;20172;-88
2022/01/06 08:22:31;;;;;;;22.05;3.63;;;1.70;99.90;;;;;;4990688;28;20041;-85
2022/01/06 08:24:57;;;;;;;20.95;3.72;;;1.70;99.90;;;;;;4965665;28;20041;-87
2022/01/06 08:27:23;;;;;;;16.83;3.63;;;3.00;99.90;;;;;;4980671;28;20051;-87
2022/01/06 08:29:51;;;;;;;18.02;3.50;;;3.20;99.90;;;;;;4986696;28;20036;-87
2022/01/06 08:32:17;;;;;;;19.63;2.90;;;3.30;99.90;;;;;;4991837;28;20049;-86
2022/01/06 08:34:43;;;;;;;19.80;3.53;;;2.20;99.90;;;;;;4980053;28;20053;-86
2022/01/06 08:37:09;;;;;;;21.80;3.40;;;3.90;99.90;;;;;;4973085;28;20399;-87
2022/01/06 08:39:35;;;;;;;20.63;3.72;;;;;;;;;;4980289;28;20049;-86
2022/01/06 08:42:01;;;;;;;18.45;4.10;;;2.50;99.90;;;;;;4985591;28;20046;-87
2022/01/06 08:44:27;;;;;;;18.80;3.45;;;2.60;99.90;;;;;;4975327;28;20050;-86
2022/01/06 08:46:53;;;;;;;13.73;2.70;;;2.70;99.90;;;;;;4976387;28;20403;-88
2022/01/06 08:49:19;;;;;;;18.80;3.28;;;2.80;99.90;;;;;;4975684;28;20038;-87
2022/01/06 08:51:45;;;;;;;16.15;2.58;;;3.00;99.90;;;;;;4972974;28;20418;-89
2022/01/06 08:54:11;;;;;;;14.18;2.67;;;3.10;99.90;;;;;;4965167;28;20411;-87
2022/01/06 08:56:37;;;;;;;12.25;2.38;;;4.30;99.90;;;;;;4993822;28;20052;-86
2022/01/06 08:59:04;;;;;;;13.13;2.50;;;4.30;99.90;;;;;;4992048;28;20034;-87
2022/01/06 09:01:31;;;;;;;11.88;2.20;;;3.20;99.90;;;;;;4975896;28;20042;-86
2022/01/06 09:03:57;;;;;;;12.40;2.22;;;3.80;99.90;;;;;;4969201;28;20391;-85
2022/01/06 09:06:22;;;;;;;14.50;2.22;;;3.30;99.90;;;;;;4987533;28;20058;-87
2022/01/06 09:08:48;;;;;;;10.50;2.15;;;4.10;99.90;;;;;;4977665;28;20054;-88
2022/01/06 09:11:14;;;;;;;16.60;2.65;;;3.30;99.90;;;;;;4972472;28;20050;-86
2022/01/06 09:13:41;;;;;;;16.33;3.15;;;3.30;99.90;;;;;;4956516;28;20123;-87
2022/01/06 09:16:08;;;;;;;14.00;2.55;;;4.00;99.90;;;;;;4963880;28;20055;-87
2022/01/06 09:18:35;;;;;;;13.35;2.40;;;3.30;99.90;;;;;;4972716;28;20125;-86
2022/01/06 09:21:01;;;;;;;14.93;3.03;;;4.40;99.90;;;;;;4995607;28;20034;-87
2022/01/06 09:23:27;;;;;;;16.40;2.95;;;3.40;99.90;;;;;;4996954;28;20513;-87
2022/01/06 09:25:53;;;;;;;16.23;3.10;;;4.40;99.90;;;;;;4991971;28;20034;-87
2022/01/06 09:28:18;;;;;;;18.33;2.90;;;3.40;99.90;;;;;;4998474;28;20108;-87
2022/01/06 09:30:44;;;;;;;18.40;3.30;;;3.40;99.90;;;;;;4963743;28;20103;-87
2022/01/06 09:33:10;;;;;;;16.10;3.47;;;4.40;99.90;;;;;;4984751;28;20042;-87
2022/01/06 09:35:36;;;;;;;20.98;3.88;;;4.70;99.90;;;;;;4960800;28;20117;-87
2022/01/06 09:38:03;;;;;;;15.98;3.53;;;3.40;99.90;;;;;;5007267;28;20046;-87
2022/01/06 09:40:29;;;;;;;24.42;4.75;;;3.90;99.90;;;;;;4993638;28;20529;-87
2022/01/06 09:42:55;;;;;;;24.23;3.92;;;3.50;99.90;;;;;;4977665;28;20434;-88
2022/01/06 09:45:25;;;;;;;13.88;3.42;;;4.10;99.90;;;;;;4976563;28;20038;-87
2022/01/06 09:47:52;;;;;;;18.83;3.40;;;4.00;99.90;;;;;;4981911;28;20038;-87
2022/01/06 09:50:17;;;;;;;17.00;3.10;;;4.70;99.90;;;;;;4993344;28;20065;-87
2022/01/06 09:52:43;;;;;;;20.38;3.50;;;3.50;99.90;;;;;;5009617;28;20388;-87
2022/01/06 09:55:10;;;;;;;21.02;3.85;;;4.60;99.90;;;;;;4992096;28;20117;-87
2022/01/06 09:57:35;;;;;;;18.67;3.47;;;3.60;99.90;;;;;;4973986;28;20043;-88
2022/01/06 10:00:03;;;;;;;16.27;3.92;;;4.90;99.90;;;;;;4969338;28;20042;-88
2022/01/06 10:02:37;;;;;;;21.33;3.45;;;3.60;99.90;;;;;;4980745;28;20041;-88
2022/01/06 10:05:04;;;;;;;21.02;3.45;;;3.60;99.90;;;;;;4993582;28;20046;-88
2022/01/06 10:07:40;;;;;;;20.38;4.20;;;3.60;99.90;;;;;;4994914;28;20038;-88
2022/01/06 10:10:12;;;;;;;21.73;3.63;;;4.90;99.90;;;;;;4989366;28;20063;-88
2022/01/06 10:12:40;;;;;;;17.95;3.60;;;3.60;99.90;;;;;;4993649;28;20037;-87
2022/01/06 10:15:23;;;;;;;13.15;2.95;;;4.90;99.90;;;;;;4993140;28;20061;-88
2022/01/06 10:17:49;;;;;;;;;;;3.70;99.90;;;;;;4982441;28;20037;-88
2022/01/06 10:20:18;;;;;;;16.52;3.40;;;5.00;99.90;;;;;;4976263;28;20370;-88
2022/01/06 10:22:52;;;;;;;21.63;3.83;;;3.80;99.90;;;;;;4973108;28;20082;-88
2022/01/06 10:25:20;;;;;;;17.27;3.25;;;3.90;99.90;;;;;;4976215;28;20477;-88
2022/01/06 10:27:46;;;;;;;15.63;3.17;;;3.90;99.90;;;;;;4971939;28;20042;-88
2022/01/06 10:30:13;;;;;;;19.58;3.80;;;4.00;99.90;;;;;;4974025;28;20522;-88
2022/01/06 10:32:40;;;;;;;17.73;3.65;;;4.90;99.90;;;;;;4992959;28;20511;-88
2022/01/06 10:35:08;;;;;;;18.85;3.50;;;4.10;99.90;;;;;;4986774;28;20038;-88
2022/01/06 10:37:39;;;;;;;21.70;3.80;;;4.20;99.90;;;;;;4972564;28;20275;-87
2022/01/06 10:40:11;;;;;;;17.40;3.67;;;4.30;99.90;;;;;;4982785;28;20041;-88
2022/01/06 10:42:40;;;;;;;13.83;3.20;;;4.50;99.90;;;;;;4980552;28;20064;-88
2022/01/06 10:45:12;;;;;;;21.15;4.00;;;5.00;99.90;;;;;;4992082;28;20516;-88
2022/01/06 10:47:43;;;;;;;17.77;3.40;;;4.40;99.90;;;;;;4975899;28;20042;-87
2022/01/06 10:50:16;;;;;;;18.33;3.25;;;4.50;99.90;;;;;;4990915;28;20049;-88
2022/01/06 10:52:48;;;;;;;18.25;3.60;;;4.50;99.90;;;;;;5009073;28;20052;-88
2022/01/06 10:55:17;;;;;;;18.67;3.92;;;4.50;99.90;;;;;;4992222;28;20041;-88
2022/01/06 10:57:50;;;;;;;17.75;3.28;;;4.60;99.90;;;;;;4979177;28;20049;-88
2022/01/06 11:00:17;;;;;;;;;;;4.60;99.90;;;;;;4975164;28;20388;-89
2022/01/06 11:02:42;;;;;;;17.58;3.60;;;4.60;99.90;;;;;;5013197;28;19922;-88
2022/01/06 11:05:08;;;;;;;16.92;3.10;;;4.70;99.90;;;;;;4979841;28;20139;-88
2022/01/06 11:07:35;;;;;;;19.48;3.40;;;5.60;99.90;;;;;;4980377;28;20046;-88
2022/01/06 11:10:05;;;;;;;16.35;3.00;;;5.40;99.90;;;;;;4966794;28;20046;-88
2022/01/06 11:12:33;;;;;;;18.17;3.63;;;5.20;99.90;;;;;;4981278;28;20463;-88
2022/01/06 11:15:00;;;;;;;21.38;4.22;;;4.80;99.90;;;;;;4994681;28;20049;-88
2022/01/06 11:17:26;;;;;;;14.73;4.20;;;5.40;99.90;;;;;;4996446;28;20120;-88
2022/01/06 11:19:52;;;;;;;16.45;3.92;;;6.00;99.90;;;;;;4964301;28;20121;-88
2022/01/06 11:22:24;;;;;;;15.13;3.33;;;5.00;99.90;;;;;;4978242;28;20044;-88
2022/01/06 11:24:54;;;;;;;15.15;3.60;;;6.00;99.90;;;;;;4982938;28;20084;-88
2022/01/06 11:27:35;;;;;;;14.77;2.80;;;5.00;99.90;;;;;;4980167;28;20049;-88
2022/01/06 11:30:14;;;;;;;15.50;3.22;;;5.10;99.90;;;;;;4972922;28;20084;-88
2022/01/06 11:32:42;;;;;;;18.45;3.03;;;5.30;99.90;;;;;;5001726;28;20045;-89
2022/01/06 11:35:11;;;;;;;18.75;3.20;;;5.60;99.90;;;;;;4972202;28;20055;-89
2022/01/06 11:37:44;;;;;;;15.95;3.38;;;5.20;99.90;;;;;;4990040;28;20096;-88
2022/01/06 11:40:12;;;;;;;21.33;4.15;;;5.20;99.90;;;;;;4992141;28;20522;-88
2022/01/06 11:42:38;;;;;;;20.75;3.45;;;5.30;99.90;;;;;;4984403;28;20038;-88
2022/01/06 11:45:06;;;;;;;15.45;3.00;;;6.50;99.90;;;;;;4996272;28;20041;-89
2022/01/06 11:47:31;;;;;;;18.70;3.20;;;5.30;99.90;;;;;;4973733;28;20132;-89
2022/01/06 11:50:11;;;;;;;15.07;3.25;;;5.40;99.90;;;;;;4982172;28;20041;-89
2022/01/06 11:52:48;;;;;;;15.73;3.83;;;5.40;99.90;;;;;;4996291;28;20038;-89
2022/01/06 11:55:14;;;;;;;16.15;3.72;;;5.50;99.90;;;;;;4995748;28;20100;-89
2022/01/06 11:57:40;;;;;;;22.08;3.80;;;5.60;99.90;;;;;;4975721;28;20033;-89
2022/01/06 12:00:18;;;;;;;20.80;3.20;;;6.20;99.90;;;;;;4995270;28;20042;-88
2022/01/06 12:02:55;;;;;;;19.83;3.85;;;5.60;99.90;;;;;;4979727;28;20038;-89
2022/01/06 12:05:20;;;;;;;14.38;3.28;;;5.60;99.90;;;;;;4992302;28;20049;-89
2022/01/06 12:07:51;;;;;;;19.63;4.22;;;5.70;99.90;;;;;;4972277;28;20046;-88
2022/01/06 12:10:17;;;;;;;19.52;3.58;;;5.70;99.90;;;;;;4978722;28;20060;-88
2022/01/06 12:12:43;;;;;;;14.68;2.88;;;5.70;99.90;;;;;;4978592;28;20046;-88
2022/01/06 12:15:15;;;;;;;18.08;3.42;;;5.70;99.90;;;;;;4978613;28;20096;-89
2022/01/06 12:17:52;;;;;;;19.53;3.63;;;5.80;99.90;;;;;;4988500;28;20046;-89
2022/01/06 12:20:24;;;;;;;18.83;3.47;;;6.90;99.90;;;;;;4995206;28;20438;-88
2022/01/06 12:22:50;;;;;;;21.67;3.60;;;5.80;99.90;;;;;;4979668;28;20064;-89
2022/01/06 12:25:20;;;;;;;23.38;4.20;;;5.90;99.90;;;;;;4979036;28;20073;-89
2022/01/06 12:27:48;;;;;;;18.27;3.70;;;6.30;99.90;;;;;;4976788;28;20046;-88
2022/01/06 12:30:19;;;;;;;19.42;3.80;;;6.50;99.90;;;;;;4996917;28;20499;-88
2022/01/06 12:33:03;;;;;;;17.40;3.95;;;5.90;99.90;;;;;;4995517;28;20037;-89
2022/01/06 12:35:40;;;;;;;21.63;3.78;;;6.00;99.90;;;;;;4988592;28;20038;-89
2022/01/06 12:38:07;;;;;;;15.48;2.92;;;6.00;99.90;;;;;;4984936;28;20041;-89
2022/01/06 12:40:35;;;;;;;13.13;3.30;;;6.00;99.90;;;;;;4990409;28;20451;-89
2022/01/06 12:43:13;;;;;;;14.63;3.10;;;6.50;99.90;;;;;;4969263;28;20452;-88
2022/01/06 12:45:39;;;;;;;20.42;3.50;;;7.70;99.90;;;;;;4994944;28;20042;-88
2022/01/06 12:48:05;;;;;;;17.33;3.67;;;7.40;99.90;;;;;;4969061;28;20034;-89
2022/01/06 12:51:00;;;;;;;14.68;3.10;;;6.60;99.90;;;;;;4972776;28;20041;-89
2022/01/06 12:53:29;;;;;;;17.92;3.25;;;6.10;99.90;;;;;;4971658;28;20052;-90
2022/01/06 12:55:56;;;;;;;13.35;2.78;;;6.30;99.90;;;;;;4978872;28;20479;-89